Terminal Aerodrome Forecast
Issued by NWS

Home | Current Version | Previous Version | Text Only | Print | Product List | Glossary On
Versions: 1 2 3 4 5 6 7 8 9 10 11 12
880
FTUS46 KSEW 262321
TAFPAE
TAF
KPAE 262321Z 2700/2724 31005KT P6SM SKC
     FM270800 19006KT P6SM SCT250
     FM271600 21006KT P6SM BKN012
     FM271800 21008KT P6SM SCT015 BKN050
     FM272100 21013KT P6SM SCT050=

USA.gov is the U.S. government's official web portal to all federal, state and local government web resources and services.